Ames, South Dakota
Current Conditions -  °F | °C
As of 4:53 PM on Tuesday 25 Nov 2014 (Local Time) from KPIR Reporting Station
Light Snow Light Snow  
Wind Chill: 29°   Ceiling: 2300
Heat Index: 34°   Visibility: 5mi
Dew Point: 30°   Wind: 6mph
Humidity: 85%   Direction: 250°WSW
Pressure: 29.77"   Gusts: NA
Location:  44.3693°N, 100.04°W
Report Text: KPIR 252253Z AUTO 25005KT 5SM -SN BR FEW014 BKN023 OVC040 01/M01 A2977 RMK AO2 SNB25 SLP098 P0000 T00111011
Loading
Personal Weather Stations






























Interactive Weather Map New forecast layout! Learn more

10-Day Weather Forecast

Advertisements
Track Severe Weather on mobile